Latest Weather Observations for Charleville

IDQ60801

Issued at 9:31 pm EST Sunday 29 May 2016 (issued every 30 minutes, with the page automatically refreshed every 10 minutes)

About weather observations | Map of weather stations | Latest weather observations for QLD | Other Formats
Station Details ID: 044021 Name: CHARLEVILLE AERO Lat: -26.41 Lon: 146.26 Height: 301.6 m
Data from the previous 72 hours. | See also: Recent months at Charleville
Date/Time
EST
Temp
°C
App
Temp
°C
Dew
Point
Rel
Hum
%
Delta-T
°C
Wind Press
QNH
hPa
Press
MSL
hPa
Rain
since 9 am
mm
Dir
 
Spd
km/h
Gust
km/h
Spd
kts
Gust
kts
29/09:30pm 7.9 5.7 -1.7 50 3.7 CALM 0 0 0 0 1021.5 - 0.0
29/09:00pm 8.6 6.4 -1.8 48 4.0 CALM 0 0 0 0 1021.3 1021.1 0.0
29/08:30pm 9.2 7.0 -1.7 46 4.2 CALM 0 0 0 0 1021.2 - 0.0
29/08:00pm 10.1 6.8 -1.2 45 4.5 SE 6 7 3 4 1021.0 - 0.0
29/07:30pm 11.1 8.5 -1.6 41 5.1 S 2 6 1 3 1020.7 - 0.0
29/07:00pm 11.8 9.0 -0.7 42 5.1 ESE 4 7 2 4 1020.6 - 0.0
29/06:30pm 13.3 10.2 0.2 40 5.6 SSE 6 7 3 4 1020.2 - 0.0
29/06:00pm 14.9 11.5 -0.9 34 6.6 S 7 9 4 5 1019.9 1019.6 0.0
29/05:30pm 17.2 13.9 -0.9 29 7.8 SW 6 7 3 4 1019.7 - 0.0
29/05:00pm 19.5 16.0 -2.7 22 9.4 SW 6 11 3 6 1019.4 - 0.0
29/04:30pm 20.3 15.9 -2.8 21 9.8 SW 11 13 6 7 1019.1 - 0.0
29/04:00pm 20.1 15.8 -4.9 18 10.2 W 9 15 5 8 1018.9 - 0.0
29/03:30pm 20.0 17.4 -4.8 18 10.1 CALM 0 7 0 4 1018.8 - 0.0
29/03:00pm 20.1 15.3 -2.9 21 9.7 W 13 17 7 9 1018.8 1018.5 0.0
29/02:30pm 20.0 15.7 -1.6 23 9.4 WNW 11 17 6 9 1018.9 - 0.0
29/02:00pm 19.4 15.5 -1.5 24 9.1 W 9 13 5 7 1018.9 - 0.0
29/01:30pm 18.9 14.9 -1.9 24 8.9 WSW 9 15 5 8 1019.2 - 0.0
29/01:00pm 18.5 14.6 -1.4 26 8.6 NNW 9 13 5 7 1019.6 - 0.0
29/12:30pm 17.8 14.1 -0.1 30 7.9 NW 9 13 5 7 1020.1 - 0.0
29/12:00pm 17.5 13.7 -0.5 29 7.8 S 9 26 5 14 1020.2 1019.9 0.0
29/11:30am 16.6 12.8 -0.7 31 7.4 SE 9 17 5 9 1020.4 - 0.0
29/11:00am 16.2 11.8 0.1 33 7.0 ESE 13 20 7 11 1020.9 - 0.0
29/10:30am 15.8 12.0 1.5 38 6.4 E 11 19 6 10 1021.3 - 0.0
29/10:00am 14.3 9.7 1.3 41 5.7 E 15 19 8 10 1021.3 - 0.0
29/09:30am 12.4 9.5 1.2 46 4.8 NNE 6 11 3 6 1021.4 - 0.0
29/09:00am 12.0 8.1 1.4 48 4.5 ENE 11 15 6 8 1021.0 1020.8 0.0
29/08:30am 8.6 5.4 0.6 57 3.3 S 7 9 4 5 1021.1 - 0.0
29/08:00am 7.0 4.4 1.0 65 2.4 NNW 4 9 2 5 1021.0 - 0.0
29/07:30am 5.8 2.6 -0.3 65 2.4 NNW 6 9 3 5 1020.7 - 0.0
29/07:00am 4.4 2.3 -0.6 70 1.9 CALM 0 0 0 0 1020.1 - 0.0
29/06:30am 3.7 1.6 -0.7 73 1.7 CALM 0 0 0 0 1020.0 - 0.0
29/06:00am 3.5 1.4 -0.8 73 1.6 CALM 0 0 0 0 1020.3 1020.0 0.0
29/05:30am 3.6 1.5 -0.9 72 1.7 CALM 0 0 0 0 1019.7 - 0.0
29/05:00am 3.4 1.3 -0.8 74 1.6 CALM 0 0 0 0 1019.5 - 0.0
29/04:30am 3.2 1.1 -1.0 74 1.6 CALM 0 0 0 0 1019.1 - 0.0
29/04:00am 3.6 1.5 -0.9 72 1.7 CALM 0 0 0 0 1019.5 - 0.0
29/03:30am 3.9 1.8 -0.7 72 1.7 CALM 0 0 0 0 1019.1 - 0.0
29/03:00am 4.2 2.2 -0.4 72 1.7 CALM 0 0 0 0 1019.1 1018.8 0.0
29/02:30am 4.6 2.5 -0.7 68 2.0 CALM 0 0 0 0 1019.0 - 0.0
29/02:00am 5.3 2.1 -0.6 66 2.3 SE 6 7 3 4 1018.9 - 0.0
29/01:30am 5.7 2.3 -0.4 65 2.4 SSE 7 9 4 5 1019.0 - 0.0
29/01:00am 6.0 4.0 -0.4 63 2.5 CALM 0 0 0 0 1018.9 - 0.0
29/12:30am 6.8 4.8 -0.2 61 2.8 CALM 0 0 0 0 1019.0 - 0.0
29/12:00am 8.1 5.0 0.0 56 3.2 SSE 6 9 3 5 1019.0 1018.7 0.0
 
Date/Time
EST
Temp
°C
App
Temp
°C
Dew
Point
Rel
Hum
%
Delta-T
°C
Wind Press
QNH
hPa
Press
MSL
hPa
Rain
since 9 am
mm
Dir
 
Spd
km/h
Gust
km/h
Spd
kts
Gust
kts
28/11:30pm 6.8 2.6 -0.6 59 2.9 SSE 11 13 6 7 1018.9 - 0.0
28/11:00pm 7.3 5.3 -0.4 58 3.0 CALM 0 0 0 0 1019.7 - 0.0
28/10:30pm 7.8 5.5 0.4 59 3.0 SE 2 7 1 4 1019.4 - 0.0
28/10:00pm 8.2 4.8 -0.5 54 3.5 SE 7 9 4 5 1019.1 - 0.0
28/09:30pm 8.9 6.9 -0.2 53 3.7 CALM 0 0 0 0 1019.1 - 0.0
28/09:00pm 9.5 6.9 0.9 55 3.6 S 4 7 2 4 1019.1 1018.8 0.0
28/08:30pm 10.3 7.0 0.0 49 4.2 SSW 7 9 4 5 1018.9 - 0.0
28/08:00pm 10.9 7.6 0.0 47 4.5 SSW 7 7 4 4 1018.6 - 0.0
28/07:30pm 11.4 8.2 0.8 48 4.5 S 7 7 4 4 1018.3 - 0.0
28/07:00pm 13.0 11.2 0.9 43 5.2 CALM 0 0 0 0 1017.8 - 0.0
28/06:30pm 14.3 10.8 1.3 41 5.7 SSW 9 9 5 5 1017.5 - 0.0
28/06:00pm 16.0 12.5 1.4 37 6.5 SW 9 9 5 5 1017.1 1016.8 0.0
28/05:30pm 18.0 14.2 -0.7 28 8.1 SW 9 15 5 8 1016.7 - 0.0
28/05:00pm 19.3 13.8 -2.0 23 9.1 WSW 17 24 9 13 1016.4 - 0.0
28/04:30pm 19.9 14.1 -1.4 23 9.3 WSW 19 28 10 15 1016.1 - 0.0
28/04:00pm 20.2 14.2 -1.4 23 9.4 WSW 20 30 11 16 1015.9 - 0.0
28/03:30pm 20.5 14.1 -1.5 22 9.6 WSW 22 32 12 17 1015.7 - 0.0
28/03:00pm 20.8 14.5 -1.1 23 9.7 WSW 22 32 12 17 1015.5 1015.2 0.0
28/02:30pm 20.6 14.9 -0.6 24 9.5 WSW 19 28 10 15 1015.6 - 0.0
28/02:00pm 20.3 14.5 0.0 25 9.1 W 20 32 11 17 1015.7 - 0.0
28/01:30pm 20.8 15.0 0.2 25 9.3 WNW 20 28 11 15 1015.8 - 0.0
28/01:00pm 20.0 15.1 1.7 29 8.5 W 17 28 9 15 1016.3 - 0.0
28/12:30pm 18.8 13.2 1.3 31 8.0 WSW 20 32 11 17 1016.7 - 0.0
28/12:00pm 19.2 13.6 1.0 29 8.3 WSW 20 28 11 15 1017.0 1016.7 0.0
28/11:30am 18.4 11.9 0.4 29 8.0 WSW 24 32 13 17 1017.3 - 0.0
28/11:00am 17.9 12.5 1.2 32 7.5 WSW 19 32 10 17 1017.6 - 0.0
28/10:30am 18.0 12.6 1.3 32 7.6 WSW 19 28 10 15 1017.7 - 0.0
28/10:00am 17.2 12.0 2.5 37 6.8 WSW 19 24 10 13 1018.0 - 0.0
28/09:30am 16.4 11.9 4.0 43 5.9 WSW 17 28 9 15 1018.2 - 0.0
28/09:00am 15.6 11.6 4.9 49 5.1 WSW 15 24 8 13 1017.9 1017.7 0.0
28/08:30am 13.8 10.7 5.6 57 3.9 WSW 11 17 6 9 1017.8 - 0.0
28/08:00am 12.3 9.6 5.8 64 3.1 WNW 9 13 5 7 1017.5 - 0.0
28/07:30am 9.6 7.4 6.2 79 1.6 W 7 9 4 5 1017.4 - 0.0
28/07:00am 7.9 6.9 5.7 86 1.0 CALM 0 0 0 0 1017.0 - 0.0
28/06:30am 8.4 6.3 5.9 84 1.2 WNW 6 7 3 4 1016.9 - 0.0
28/06:00am 8.7 6.6 5.9 82 1.3 NW 6 7 3 4 1016.7 1016.4 0.0
28/05:30am 8.9 8.0 6.1 82 1.3 CALM 0 0 0 0 1016.2 - 0.0
28/05:00am 9.5 7.9 6.3 80 1.5 NW 4 7 2 4 1016.0 - 0.0
28/04:30am 9.6 7.4 6.4 80 1.5 WNW 7 9 4 5 1015.8 - 0.0
28/04:00am 10.1 8.1 6.4 78 1.8 WNW 6 7 3 4 1015.6 - 0.0
28/03:30am 10.5 9.7 6.7 77 1.8 CALM 0 2 0 1 1015.5 - 0.0
28/03:00am 10.9 10.2 6.9 76 1.9 CALM 0 0 0 0 1015.4 1015.1 0.0
28/02:30am 11.5 10.8 6.9 73 2.2 CALM 0 0 0 0 1015.4 - 0.0
28/02:00am 11.9 11.2 6.9 71 2.4 CALM 0 0 0 0 1015.7 - 0.0
28/01:30am 12.7 12.0 6.9 68 2.8 CALM 0 6 0 3 1015.7 - 0.0
28/01:00am 13.1 11.1 7.2 67 2.9 W 7 7 4 4 1015.7 - 0.0
28/12:30am 13.6 11.6 7.1 65 3.2 W 7 7 4 4 1015.6 - 0.0
28/12:00am 14.0 12.2 7.2 63 3.4 WSW 6 6 3 3 1015.8 1015.5 0.0
 
Date/Time
EST
Temp
°C
App
Temp
°C
Dew
Point
Rel
Hum
%
Delta-T
°C
Wind Press
QNH
hPa
Press
MSL
hPa
Rain
since 9 am
mm
Dir
 
Spd
km/h
Gust
km/h
Spd
kts
Gust
kts
27/11:30pm 14.2 13.1 6.9 61 3.6 WSW 2 9 1 5 1016.2 - 0.0
27/11:00pm 15.3 13.4 7.4 59 4.0 SW 7 9 4 5 1015.9 - 0.0
27/10:30pm 15.6 14.6 7.4 58 4.1 SSW 2 7 1 4 1015.9 - 0.0
27/10:00pm 16.2 15.6 7.4 56 4.5 CALM 0 0 0 0 1016.2 - 0.0
27/09:30pm 16.6 14.6 7.0 53 4.8 SW 7 11 4 6 1016.2 - 0.0
27/09:00pm 16.8 14.4 7.0 52 4.9 SSW 9 11 5 6 1015.8 1015.5 0.0
27/08:30pm 17.0 14.6 7.0 51 5.0 SSW 9 11 5 6 1015.5 - 0.0
27/08:00pm 17.8 15.3 6.6 48 5.6 SW 9 13 5 7 1015.5 - 0.0
27/07:30pm 18.0 15.9 6.7 47 5.7 WSW 7 11 4 6 1014.8 - 0.0
27/07:00pm 18.4 15.5 6.5 45 6.0 SW 11 15 6 8 1014.7 - 0.0
27/06:30pm 18.6 16.1 6.7 46 6.0 SSW 9 15 5 8 1014.2 - 0.0
27/06:00pm 18.9 15.7 6.8 45 6.2 SSW 13 15 7 8 1014.1 1013.8 0.0
27/05:30pm 19.1 15.9 6.8 44 6.3 SSW 13 19 7 10 1013.3 - 0.0
27/05:00pm 20.1 16.9 6.7 41 6.9 SW 13 20 7 11 1013.4 - 0.0
27/04:30pm 20.3 17.2 7.1 42 6.8 WSW 13 22 7 12 1013.0 - 0.0
27/04:00pm 20.5 16.5 6.8 41 7.0 W 17 24 9 13 1012.7 - 0.0
27/03:30pm 20.9 17.0 7.0 40 7.2 WSW 17 28 9 15 1012.4 - 0.0
27/03:00pm 20.7 17.3 9.0 47 6.3 SW 17 22 9 12 1012.4 1012.1 0.0
27/02:30pm 21.0 17.6 9.3 47 6.3 WSW 17 26 9 14 1011.6 - 0.0
27/02:00pm 20.5 18.1 9.9 50 5.8 WSW 13 22 7 12 1011.8 - 0.0
27/01:30pm 20.5 18.1 10.1 51 5.7 WSW 13 19 7 10 1012.2 - 0.0
27/01:00pm 20.5 18.6 10.4 52 5.6 SW 11 20 6 11 1012.2 - 0.0
27/12:30pm 20.4 18.3 11.0 54 5.2 WSW 13 24 7 13 1012.7 - 0.0
27/12:00pm 20.2 18.6 11.5 57 4.9 W 11 17 6 9 1013.0 1012.7 0.0
27/11:30am 19.9 17.9 11.6 58 4.7 SW 13 19 7 10 1013.6 - 0.0
27/11:00am 19.5 17.4 12.5 64 4.0 WSW 15 19 8 10 1014.3 - 0.0
27/10:30am 19.5 17.5 12.6 64 3.9 SW 15 19 8 10 1014.0 - 0.0
27/10:00am 19.9 17.7 13.4 66 3.8 SW 17 22 9 12 1014.0 - 0.0
27/09:30am 19.2 17.9 13.6 70 3.2 WSW 13 19 7 10 1013.8 - 0.0
27/09:00am 18.5 18.0 13.7 73 2.8 SSW 9 17 5 9 1013.6 1013.3 0.2
27/08:30am 18.4 17.2 12.8 70 3.2 SW 11 17 6 9 1013.5 - 0.2
27/08:00am 18.2 17.7 12.6 70 3.2 WSW 7 13 4 7 1013.2 - 0.2
27/07:30am 17.7 17.3 12.9 73 2.7 WSW 7 9 4 5 1013.0 - 0.2
27/07:00am 16.7 16.4 13.3 80 1.9 W 7 9 4 5 1012.6 - 0.2
27/06:30am 17.5 17.2 13.2 76 2.5 WSW 7 13 4 7 1012.1 - 0.2
27/06:00am 18.1 17.3 12.8 71 3.0 SW 9 11 5 6 1012.0 1011.6 0.2
27/05:30am 18.6 17.0 12.7 68 3.4 SW 13 19 7 10 1011.8 - 0.2
27/05:00am 19.2 17.7 13.1 68 3.5 SW 13 19 7 10 1011.9 - 0.2
27/04:30am 19.5 18.6 13.7 69 3.4 WSW 11 17 6 9 1011.8 - 0.2
27/04:00am 19.6 18.0 13.8 69 3.4 SW 15 24 8 13 1011.4 - 0.2
27/03:30am 19.5 18.8 14.3 72 3.1 WSW 11 15 6 8 1011.4 - 0.2
27/03:00am 18.8 18.9 15.6 82 1.9 SW 9 13 5 7 1011.2 1010.8 0.2
27/02:30am 18.9 20.9 16.1 84 1.7 CALM 0 0 0 0 1011.2 - 0.2
27/02:00am 19.1 20.0 16.1 83 1.8 SW 6 9 3 5 1011.3 - 0.2
27/01:30am 19.9 20.1 15.8 77 2.5 SSW 9 11 5 6 1010.9 - 0.2
27/01:00am 20.7 20.5 15.8 73 3.0 S 11 17 6 9 1011.2 - 0.2
27/12:30am 20.7 20.5 15.7 73 3.0 SSW 11 15 6 8 1010.9 - 0.2
27/12:00am 21.0 20.5 15.9 72 3.1 SW 13 17 7 9 1010.8 1010.5 0.2
 
Date/Time
EST
Temp
°C
App
Temp
°C
Dew
Point
Rel
Hum
%
Delta-T
°C
Wind Press
QNH
hPa
Press
MSL
hPa
Rain
since 9 am
mm
Dir
 
Spd
km/h
Gust
km/h
Spd
kts
Gust
kts
26/11:30pm 21.4 21.2 15.8 70 3.4 SW 11 15 6 8 1010.6 - 0.2
26/11:00pm 20.8 21.5 16.1 74 2.9 SW 7 13 4 7 1010.8 - 0.2
26/10:30pm 22.0 23.6 16.0 68 3.7 S 2 7 1 4 1010.4 - 0.2
26/10:00pm 21.8 21.7 15.9 69 3.6 W 11 15 6 8 1010.8 - 0.2

Other Formats:

Comma delimited format used in spreadsheet applications
http://www.bom.gov.au/fwo/IDQ60801/IDQ60801.94510.axf

JavaScript Object Notation format (JSON) in row-major order
http://www.bom.gov.au/fwo/IDQ60801/IDQ60801.94510.json